Time;durP1;ratioP1;P1;durP2;ratioP2;P2;SDS_P1;SDS_P2;PMS_P1;PMS_P2;Temp;Humidity;BMP_temperature;BMP_pressure;BME280_temperature;BME280_humidity;BME280_pressure;Samples;Min_cycle;Max_cycle;Signal;HPM_P1;HPM_P2
2022/08/02 00:01:38;;;;;;;25.08;15.95;;;16.70;99.90;;;;;;4917521;29;20458;-87
2022/08/02 00:04:28;;;;;;;24.10;16.02;;;16.70;99.90;;;;;;4924809;29;20540;-86
2022/08/02 00:07:18;;;;;;;19.25;12.80;;;16.60;99.90;;;;;;4917571;29;20048;-86
2022/08/02 00:10:07;;;;;;;19.63;13.35;;;16.60;99.90;;;;;;4911201;29;20127;-86
2022/08/02 00:12:54;;;;;;;18.90;12.60;;;16.50;99.90;;;;;;4918264;29;20064;-86
2022/08/02 00:15:42;;;;;;;21.20;11.70;;;16.50;99.90;;;;;;4910823;29;20052;-87
2022/08/02 00:18:29;;;;;;;14.80;8.40;;;16.50;99.90;;;;;;4910741;29;20048;-86
2022/08/02 00:21:17;;;;;;;12.43;8.27;;;16.50;99.90;;;;;;4914962;29;20135;-85
2022/08/02 00:24:07;;;;;;;10.07;7.78;;;16.50;99.90;;;;;;4918794;29;20049;-87
2022/08/02 00:27:14;;;;;;;10.02;6.78;;;16.40;99.90;;;;;;4920513;28;20046;-86
2022/08/02 00:30:02;;;;;;;10.20;7.45;;;16.40;99.90;;;;;;4926491;29;20083;-87
2022/08/02 00:32:49;;;;;;;10.27;7.07;;;16.40;99.90;;;;;;4931687;29;20076;-86
2022/08/02 00:35:39;;;;;;;11.65;6.30;;;16.40;99.90;;;;;;4935762;29;20048;-85
2022/08/02 00:38:28;;;;;;;10.23;5.65;;;16.40;99.90;;;;;;4922918;29;20048;-84
2022/08/02 00:41:22;;;;;;;8.85;5.90;;;16.40;99.90;;;;;;4930947;29;20084;-84
2022/08/02 00:44:09;;;;;;;8.25;6.20;;;16.40;99.90;;;;;;4937339;29;20032;-84
2022/08/02 00:46:58;;;;;;;7.90;5.18;;;16.40;99.90;;;;;;4909009;29;20052;-85
2022/08/02 00:49:46;;;;;;;5.47;4.90;;;16.30;99.90;;;;;;4916263;29;20051;-86
2022/08/02 00:52:33;;;;;;;6.35;4.85;;;16.30;99.90;;;;;;4932661;29;20080;-86
2022/08/02 00:55:21;;;;;;;7.38;5.40;;;16.20;99.90;;;;;;4933796;29;20063;-85
2022/08/02 00:58:17;;;;;;;6.45;4.60;;;16.30;99.90;;;;;;4930547;29;20048;-84
2022/08/02 01:01:04;;;;;;;7.25;4.93;;;16.20;99.90;;;;;;4931755;29;20146;-86
2022/08/02 01:03:51;;;;;;;5.82;4.30;;;16.20;99.90;;;;;;4920410;29;20048;-85
2022/08/02 01:06:40;;;;;;;8.02;4.70;;;16.20;99.90;;;;;;4925051;29;20080;-85
2022/08/02 01:09:27;;;;;;;6.60;5.50;;;16.20;99.90;;;;;;4928160;29;20048;-85
2022/08/02 01:12:17;;;;;;;6.93;5.25;;;16.10;99.90;;;;;;4935322;29;20176;-86
2022/08/02 01:15:07;;;;;;;8.30;5.28;;;16.10;99.90;;;;;;4910986;29;20056;-85
2022/08/02 01:18:08;;;;;;;9.20;5.10;;;16.10;99.90;;;;;;4911549;29;20444;-84
2022/08/02 01:21:14;;;;;;;5.35;4.82;;;16.10;99.90;;;;;;4920802;29;20052;-84
2022/08/02 01:24:32;;;;;;;7.90;4.97;;;16.10;99.90;;;;;;4914186;29;20127;-85
2022/08/02 01:27:41;;;;;;;7.32;5.50;;;16.10;99.90;;;;;;4915455;29;20044;-86
2022/08/02 01:30:33;;;;;;;12.57;5.35;;;16.10;99.90;;;;;;4922364;29;20048;-85
2022/08/02 01:33:25;;;;;;;8.90;5.25;;;16.10;99.90;;;;;;4923417;29;20450;-84
2022/08/02 01:36:16;;;;;;;13.18;5.30;;;16.10;99.90;;;;;;4918938;29;20048;-86
2022/08/02 01:39:10;;;;;;;9.32;5.72;;;16.00;99.90;;;;;;4916927;29;20060;-86
2022/08/02 01:42:13;;;;;;;7.95;5.85;;;16.00;99.90;;;;;;4905982;29;20036;-85
2022/08/02 01:45:05;;;;;;;9.25;5.88;;;16.00;99.90;;;;;;4913070;29;20077;-86
2022/08/02 01:47:53;;;;;;;9.93;6.93;;;15.90;99.90;;;;;;4921308;29;20052;-85
2022/08/02 01:50:42;;;;;;;9.27;6.00;;;15.90;99.90;;;;;;4921497;29;20075;-86
2022/08/02 01:53:31;;;;;;;6.95;6.05;;;15.80;99.90;;;;;;4919803;29;20052;-86
2022/08/02 01:56:19;;;;;;;9.18;6.38;;;15.80;99.90;;;;;;4920894;29;20100;-85
2022/08/02 01:59:10;;;;;;;12.05;6.28;;;15.70;99.90;;;;;;4919129;29;20206;-86
2022/08/02 02:02:00;;;;;;;10.52;6.00;;;15.80;99.90;;;;;;4922897;29;20068;-85
2022/08/02 02:04:51;;;;;;;8.57;6.35;;;15.80;99.90;;;;;;4912269;29;20048;-86
2022/08/02 02:07:45;;;;;;;7.57;6.80;;;15.70;99.90;;;;;;4919375;29;20059;-84
2022/08/02 02:10:37;;;;;;;7.63;6.50;;;15.70;99.90;;;;;;4921093;29;20048;-84
2022/08/02 02:13:26;;;;;;;8.98;6.00;;;15.70;99.90;;;;;;4931510;29;20048;-85
2022/08/02 02:16:20;;;;;;;14.23;6.35;;;15.70;99.90;;;;;;4916731;29;20058;-84
2022/08/02 02:19:11;;;;;;;12.30;6.68;;;15.60;99.90;;;;;;4917644;29;20103;-84
2022/08/02 02:22:07;;;;;;;9.63;6.13;;;15.60;99.90;;;;;;4927184;29;20059;-84
2022/08/02 02:24:59;;;;;;;10.40;6.45;;;15.60;99.90;;;;;;4922619;29;20048;-84
2022/08/02 02:27:56;;;;;;;12.50;6.47;;;15.60;99.90;;;;;;4926876;29;20047;-84
2022/08/02 02:30:54;;;;;;;6.45;5.80;;;15.60;99.90;;;;;;4929199;29;20084;-85
2022/08/02 02:33:59;;;;;;;8.73;5.80;;;15.50;99.90;;;;;;4940026;29;20114;-83
2022/08/02 02:36:51;;;;;;;7.05;6.30;;;15.50;99.90;;;;;;4902420;29;20063;-86
2022/08/02 02:39:43;;;;;;;11.25;6.05;;;15.50;99.90;;;;;;4930777;29;20063;-85
2022/08/02 02:42:34;;;;;;;10.07;5.75;;;15.50;99.90;;;;;;4926436;29;20044;-86
2022/08/02 02:45:22;;;;;;;8.00;5.82;;;15.50;99.90;;;;;;4904812;29;20119;-85
2022/08/02 02:48:13;;;;;;;8.32;5.68;;;15.50;99.90;;;;;;4918577;29;20139;-85
2022/08/02 02:51:06;;;;;;;7.22;5.95;;;15.40;99.90;;;;;;4918197;29;20051;-85
2022/08/02 02:54:02;;;;;;;7.90;5.88;;;15.40;99.90;;;;;;4921515;29;20040;-84
2022/08/02 02:57:13;;;;;;;12.43;6.07;;;15.40;99.90;;;;;;4914661;29;20126;-84
2022/08/02 03:00:01;;;;;;;6.38;5.13;;;15.40;99.90;;;;;;4917297;29;20184;-85
2022/08/02 03:02:51;;;;;;;7.65;5.53;;;15.40;99.90;;;;;;4911066;29;20126;-85
2022/08/02 03:05:43;;;;;;;7.80;5.43;;;15.40;99.90;;;;;;4917017;29;20056;-84
2022/08/02 03:08:30;;;;;;;9.05;5.32;;;15.40;99.90;;;;;;4915073;29;20123;-85
2022/08/02 03:11:18;;;;;;;7.90;5.13;;;15.30;99.90;;;;;;4918165;29;20479;-84
2022/08/02 03:14:11;;;;;;;7.47;5.28;;;15.30;99.90;;;;;;4916715;29;20104;-85
2022/08/02 03:16:58;;;;;;;9.05;5.15;;;15.30;99.90;;;;;;4914939;29;20048;-85
2022/08/02 03:19:45;;;;;;;7.70;5.28;;;15.30;99.90;;;;;;4912235;29;20117;-84
2022/08/02 03:22:35;;;;;;;7.00;5.18;;;15.20;99.90;;;;;;4912927;29;20067;-85
2022/08/02 03:25:22;;;;;;;8.55;5.50;;;15.30;99.90;;;;;;4916502;29;20119;-85
2022/08/02 03:28:09;;;;;;;6.72;5.18;;;15.20;99.90;;;;;;4917997;29;20135;-85
2022/08/02 03:31:00;;;;;;;6.00;5.15;;;15.20;99.90;;;;;;4919821;29;20087;-85
2022/08/02 03:33:47;;;;;;;9.43;5.35;;;15.20;99.90;;;;;;4899390;29;20045;-85
2022/08/02 03:36:36;;;;;;;7.03;4.90;;;15.20;99.90;;;;;;4915923;29;20071;-85
2022/08/02 03:39:25;;;;;;;6.18;4.80;;;15.20;99.90;;;;;;4904949;29;20049;-85
2022/08/02 03:42:13;;;;;;;8.05;4.80;;;15.20;99.90;;;;;;4914699;29;20041;-85
2022/08/02 03:45:02;;;;;;;7.32;5.28;;;15.20;99.90;;;;;;4916255;29;20052;-85
2022/08/02 03:48:03;;;;;;;8.25;4.28;;;15.20;99.90;;;;;;4920050;29;20076;-85
2022/08/02 03:51:14;;;;;;;7.57;5.22;;;15.20;99.90;;;;;;4904232;29;20053;-86
2022/08/02 03:54:02;;;;;;;8.82;6.25;;;15.10;99.90;;;;;;4910669;29;20047;-85
2022/08/02 03:56:52;;;;;;;8.73;5.45;;;15.10;99.90;;;;;;4913945;29;20104;-85
2022/08/02 03:59:47;;;;;;;8.40;5.70;;;15.10;99.90;;;;;;4920739;29;20047;-85
2022/08/02 04:02:52;;;;;;;8.45;6.15;;;15.10;99.90;;;;;;4931274;29;20462;-86
2022/08/02 04:05:47;;;;;;;9.40;5.57;;;15.10;99.90;;;;;;4918417;29;20114;-85
2022/08/02 04:08:51;;;;;;;10.10;5.57;;;15.10;99.90;;;;;;4912424;29;20051;-84
2022/08/02 04:11:41;;;;;;;8.80;5.88;;;15.10;99.90;;;;;;4914644;29;20068;-84
2022/08/02 04:14:30;;;;;;;13.75;6.28;;;15.10;99.90;;;;;;4915822;29;20127;-82
2022/08/02 04:17:26;;;;;;;9.38;6.07;;;15.10;99.90;;;;;;4920436;29;20056;-83
2022/08/02 04:20:23;;;;;;;12.77;7.68;;;15.00;99.90;;;;;;4923409;29;20486;-82
2022/08/02 04:23:14;;;;;;;11.50;6.38;;;15.00;99.90;;;;;;4914892;29;20048;-81
2022/08/02 04:26:03;;;;;;;6.63;5.85;;;15.00;99.90;;;;;;4918129;29;20048;-81
2022/08/02 04:28:55;;;;;;;8.35;6.05;;;15.00;99.90;;;;;;4913853;29;20414;-82
2022/08/02 04:31:42;;;;;;;11.20;6.20;;;15.00;99.90;;;;;;4914357;29;20062;-81
2022/08/02 04:34:32;;;;;;;8.73;5.88;;;15.00;99.90;;;;;;4919335;29;20079;-83
2022/08/02 04:37:25;;;;;;;9.35;6.18;;;15.00;99.90;;;;;;4916557;29;20479;-81
2022/08/02 04:40:15;;;;;;;7.25;5.70;;;15.10;99.90;;;;;;4900634;29;20048;-81
2022/08/02 04:43:02;;;;;;;5.88;5.22;;;15.10;99.90;;;;;;4915265;29;20154;-82
2022/08/02 04:45:54;;;;;;;8.57;6.32;;;15.10;99.90;;;;;;4907796;29;20051;-82
2022/08/02 04:48:41;;;;;;;8.85;6.25;;;15.10;99.90;;;;;;4922059;29;20084;-82
2022/08/02 04:51:29;;;;;;;7.00;5.85;;;15.20;99.90;;;;;;4914980;29;20052;-83
2022/08/02 04:54:24;;;;;;;10.38;6.32;;;15.20;99.90;;;;;;4914395;29;20469;-83
2022/08/02 05:00:17;;;;;;;6.95;6.05;;;15.30;99.90;;;;;;4927090;29;20071;-83
2022/08/02 05:03:04;;;;;;;10.20;6.97;;;15.40;99.90;;;;;;4919006;29;20045;-83
2022/08/02 05:05:52;;;;;;;10.90;7.20;;;15.40;99.90;;;;;;4923354;29;20063;-83
2022/08/02 05:08:44;;;;;;;10.18;7.15;;;15.50;99.90;;;;;;4930636;29;20051;-82
2022/08/02 05:11:39;;;;;;;8.57;7.25;;;15.30;99.90;;;;;;4916983;29;20056;-81
2022/08/02 05:14:28;;;;;;;11.38;8.60;;;15.30;99.90;;;;;;4930102;29;20044;-82
2022/08/02 05:17:15;;;;;;;11.40;7.78;;;15.30;99.90;;;;;;4918673;29;20161;-81
2022/08/02 05:20:07;;;;;;;9.85;7.68;;;15.40;99.90;;;;;;4911538;29;20052;-82
2022/08/02 05:22:54;;;;;;;9.30;7.07;;;15.50;99.90;;;;;;4910913;29;20156;-82
2022/08/02 05:25:46;;;;;;;12.68;7.25;;;15.60;99.90;;;;;;4901431;29;20147;-82
2022/08/02 05:28:34;;;;;;;8.65;6.85;;;15.70;99.90;;;;;;4917019;29;20048;-83
2022/08/02 05:31:25;;;;;;;10.13;6.63;;;15.70;99.90;;;;;;4927498;29;20055;-84
2022/08/02 05:34:17;;;;;;;10.70;7.00;;;15.80;99.90;;;;;;4925466;29;20056;-86
2022/08/02 05:37:04;;;;;;;16.80;7.57;;;15.90;99.90;;;;;;4922305;29;20107;-86
2022/08/02 05:40:16;;;;;;;8.63;6.53;;;16.00;99.90;;;;;;4915043;29;20355;-83
2022/08/02 05:43:14;;;;;;;11.95;6.68;;;16.10;99.90;;;;;;4914169;29;20044;-86
2022/08/02 05:46:01;;;;;;;8.88;6.00;;;16.10;99.90;;;;;;4920578;29;20059;-87
2022/08/02 05:48:53;;;;;;;9.57;6.18;;;16.20;99.90;;;;;;4929612;29;20143;-87
2022/08/02 05:51:51;;;;;;;9.00;6.40;;;16.20;99.90;;;;;;4934987;29;20056;-87
2022/08/02 05:54:38;;;;;;;10.25;6.20;;;16.30;99.90;;;;;;4922037;29;20373;-87
2022/08/02 05:57:35;;;;;;;6.45;5.82;;;16.30;99.90;;;;;;4931236;29;20265;-85
2022/08/02 06:00:35;;;;;;;11.20;5.43;;;16.40;99.90;;;;;;4931634;29;20055;-85
2022/08/02 06:03:37;;;;;;;6.32;5.72;;;16.50;99.90;;;;;;4931236;29;20048;-87
2022/08/02 06:06:25;;;;;;;10.70;6.13;;;16.50;99.90;;;;;;4924932;29;20048;-87
2022/08/02 06:09:21;;;;;;;8.90;5.47;;;16.50;99.90;;;;;;4928223;29;20095;-86
2022/08/02 06:12:15;;;;;;;11.52;8.82;;;16.50;99.90;;;;;;4939217;29;20067;-86
2022/08/02 06:15:06;;;;;;;11.27;6.97;;;16.60;99.90;;;;;;4925760;29;20168;-86
2022/08/02 06:17:53;;;;;;;11.95;6.93;;;16.70;99.90;;;;;;4917573;29;20442;-88
2022/08/02 06:20:43;;;;;;;8.90;6.03;;;16.80;99.90;;;;;;4933485;29;20227;-88
2022/08/02 06:23:31;;;;;;;8.35;6.00;;;16.90;99.90;;;;;;4932444;29;20124;-88
2022/08/02 06:26:26;;;;;;;9.20;6.15;;;17.10;99.90;;;;;;4930646;29;20099;-87
2022/08/02 06:29:14;;;;;;;9.50;5.57;;;17.20;22.70;;;;;;4925546;29;20107;-88
2022/08/02 06:32:02;;;;;;;7.82;5.93;;;17.30;5.60;;;;;;4913057;29;20367;-90
2022/08/02 06:34:53;;;;;;;7.93;5.43;;;17.50;1.00;;;;;;4920864;29;20048;-91
2022/08/02 06:37:49;;;;;;;7.57;5.43;;;17.50;99.90;;;;;;4917130;29;20397;-87
2022/08/02 06:40:51;;;;;;;9.05;5.70;;;17.60;99.90;;;;;;4914254;29;20442;-87
2022/08/02 06:43:54;;;;;;;9.10;5.38;;;17.70;1.00;;;;;;4916231;29;20067;-89
2022/08/02 06:46:47;;;;;;;6.20;5.03;;;17.80;99.90;;;;;;4925806;29;20478;-85
2022/08/02 06:49:55;;;;;;;12.15;5.65;;;17.90;1.00;;;;;;4918094;29;20139;-92
2022/08/02 06:52:45;;;;;;;6.43;4.80;;;17.90;99.90;;;;;;4924119;29;20202;-91
2022/08/02 06:55:36;;;;;;;8.68;4.78;;;18.20;1.00;;;;;;4908892;29;20048;-86
2022/08/02 06:58:32;;;;;;;6.65;4.50;;;18.40;99.90;;;;;;4913222;29;20048;-90
2022/08/02 07:01:19;;;;;;;5.10;4.60;;;18.70;1.00;;;;;;4919351;29;20473;-88
2022/08/02 07:04:08;;;;;;;4.13;3.70;;;19.10;99.90;;;;;;4919457;29;20071;-90
2022/08/02 07:06:56;;;;;;;5.88;3.92;;;19.30;99.90;;;;;;4912698;29;20127;-91
2022/08/02 07:09:43;;;;;;;5.50;4.10;;;19.50;1.00;;;;;;4920187;29;20052;-90
2022/08/02 07:12:49;;;;;;;5.22;4.30;;;19.70;99.90;;;;;;4931607;29;20059;-88
2022/08/02 07:15:41;;;;;;;4.78;3.70;;;20.20;99.90;;;;;;4923578;29;20055;-90
2022/08/02 07:18:40;;;;;;;6.00;4.20;;;20.50;19.20;;;;;;4927921;29;20514;-91
2022/08/02 07:21:31;;;;;;;6.00;4.30;;;20.80;99.90;;;;;;4919483;29;20044;-88
2022/08/02 07:24:41;;;;;;;4.07;3.60;;;21.10;99.90;;;;;;4925652;29;20296;-90
2022/08/02 07:27:28;;;;;;;6.43;3.78;;;21.50;99.90;;;;;;4933989;29;20076;-90
2022/08/02 07:30:20;;;;;;;5.88;3.90;;;21.40;99.90;;;;;;4927061;29;20520;-90
2022/08/02 07:33:08;;;;;;;4.32;3.70;;;21.80;51.10;;;;;;4910886;29;20056;-88
2022/08/02 07:36:17;;;;;;;8.77;3.72;;;22.00;99.90;;;;;;4927891;29;20049;-88
2022/08/02 07:39:11;;;;;;;6.30;3.33;;;22.80;1.00;;;;;;4922271;29;20048;-84
2022/08/02 07:41:58;;;;;;;5.20;3.88;;;23.70;99.90;;;;;;4912628;29;20058;-87
2022/08/02 07:44:48;;;;;;;5.53;3.67;;;23.30;1.90;;;;;;4916690;29;20163;-84
2022/08/02 07:47:37;;;;;;;3.92;3.63;;;22.90;14.60;;;;;;4909949;29;20071;-82
2022/08/02 07:50:27;;;;;;;5.77;4.53;;;23.00;1.00;;;;;;4915896;29;20052;-83
2022/08/02 07:53:14;;;;;;;5.63;4.60;;;22.90;18.40;;;;;;4916180;29;20363;-84
2022/08/02 07:56:04;;;;;;;6.82;4.57;;;23.30;1.00;;;;;;4923680;29;20059;-89
2022/08/02 07:58:52;;;;;;;5.18;3.72;;;23.50;1.00;;;;;;4924043;29;20048;-89
2022/08/02 08:01:44;;;;;;;5.65;3.97;;;24.10;1.00;;;;;;4927289;29;20060;-88
2022/08/02 08:04:32;;;;;;;5.78;3.38;;;25.10;1.00;;;;;;4930462;29;20048;-88
2022/08/02 08:07:23;;;;;;;5.93;3.65;;;25.80;1.00;;;;;;4937391;29;20072;-88
2022/08/02 08:10:12;;;;;;;4.55;3.28;;;26.20;99.90;;;;;;4935517;29;20072;-91
2022/08/02 08:13:00;;;;;;;4.70;3.50;;;26.50;99.90;;;;;;4925059;29;20048;-88
2022/08/02 08:15:49;;;;;;;6.03;3.35;;;27.00;99.90;;;;;;4894813;29;20056;-89
2022/08/02 08:18:38;;;;;;;4.27;2.77;;;27.10;99.90;;;;;;4913382;29;20052;-87
2022/08/02 08:21:30;;;;;;;3.92;2.85;;;27.70;99.90;;;;;;4910623;29;20296;-89
2022/08/02 08:24:22;;;;;;;4.40;3.45;;;28.60;99.90;;;;;;4915471;29;20043;-89
2022/08/02 08:27:14;;;;;;;6.55;4.45;;;28.30;40.60;;;;;;4920099;29;20044;-88
2022/08/02 08:30:02;;;;;;;5.88;3.92;;;27.50;29.30;;;;;;4920570;29;20063;-88
2022/08/02 08:32:49;;;;;;;5.10;3.30;;;27.30;94.10;;;;;;4904608;29;20044;-89
2022/08/02 08:35:36;;;;;;;8.00;3.90;;;27.50;79.80;;;;;;4920867;29;20160;-89
2022/08/02 08:38:24;;;;;;;4.75;2.95;;;28.20;49.50;;;;;;4918519;29;20056;-91
2022/08/02 08:41:15;;;;;;;3.47;2.47;;;29.00;36.90;;;;;;4915532;29;20044;-88
2022/08/02 08:44:03;;;;;;;3.30;2.70;;;29.50;29.20;;;;;;4919894;29;20471;-84
2022/08/02 08:46:51;;;;;;;6.40;3.35;;;30.00;1.00;;;;;;4914993;29;20056;-89
2022/08/02 08:49:45;;;;;;;3.70;3.00;;;30.40;1.00;;;;;;4924531;29;20477;-87
2022/08/02 08:52:52;;;;;;;4.28;3.38;;;30.00;1.00;;;;;;4917601;29;20066;-89
2022/08/02 08:55:43;;;;;;;3.35;2.42;;;29.30;1.00;;;;;;4911018;29;20126;-86
2022/08/02 08:58:31;;;;;;;3.93;3.23;;;29.00;1.00;;;;;;4927291;29;20064;-85
2022/08/02 09:01:18;;;;;;;4.57;2.70;;;28.70;1.00;;;;;;4919435;29;20059;-87
2022/08/02 09:04:05;;;;;;;3.17;2.83;;;28.30;1.00;;;;;;4919361;29;20155;-85
2022/08/02 09:06:52;;;;;;;4.60;3.53;;;28.10;1.00;;;;;;4910118;29;20052;-87
2022/08/02 09:09:42;;;;;;;6.15;3.50;;;27.30;1.00;;;;;;4912566;29;20056;-86
2022/08/02 09:12:29;;;;;;;8.10;3.05;;;27.20;1.00;;;;;;4924189;29;20043;-87
2022/08/02 09:15:24;;;;;;;5.25;2.63;;;26.90;1.00;;;;;;4913505;29;20052;-85
2022/08/02 09:18:11;;;;;;;;;;;28.20;1.00;;;;;;4912498;29;20187;-86
2022/08/02 09:21:01;;;;;;;4.43;2.50;;;29.20;1.00;;;;;;4924574;29;19923;-87
2022/08/02 09:23:51;;;;;;;5.32;2.90;;;29.80;1.00;;;;;;4912650;29;20188;-85
2022/08/02 09:26:40;;;;;;;3.33;2.67;;;30.00;1.00;;;;;;4916516;29;20056;-85
2022/08/02 09:29:28;;;;;;;2.60;2.40;;;30.30;1.00;;;;;;4921513;29;20092;-85
2022/08/02 09:32:18;;;;;;;2.88;2.60;;;30.80;1.00;;;;;;4911797;29;20072;-84
2022/08/02 09:35:06;;;;;;;4.05;2.53;;;31.70;1.00;;;;;;4909540;29;20044;-83
2022/08/02 09:38:08;;;;;;;4.93;2.80;;;30.80;1.00;;;;;;4923081;29;20063;-83
2022/08/02 09:40:58;;;;;;;4.15;3.00;;;29.30;1.00;;;;;;4915725;29;20454;-84
2022/08/02 09:43:46;;;;;;;4.32;3.20;;;27.80;1.00;;;;;;4920612;29;20156;-83
2022/08/02 09:46:51;;;;;;;3.63;3.33;;;26.70;1.00;;;;;;4911683;29;20048;-83
2022/08/02 09:49:46;;;;;;;4.80;3.90;;;26.20;1.00;;;;;;4917250;29;20159;-82
2022/08/02 09:52:44;;;;;;;6.40;4.00;;;25.90;1.00;;;;;;4908244;29;20070;-83
2022/08/02 09:55:36;;;;;;;5.00;3.80;;;25.70;1.00;;;;;;4916602;29;20044;-83
2022/08/02 09:58:24;;;;;;;5.07;3.60;;;26.50;1.00;;;;;;4917889;29;20477;-82
2022/08/02 10:01:13;;;;;;;5.18;3.55;;;27.80;1.00;;;;;;4927487;29;20071;-81
2022/08/02 10:04:09;;;;;;;8.23;4.30;;;28.10;1.00;;;;;;4917642;29;20151;-80
2022/08/02 10:07:09;;;;;;;7.40;3.83;;;27.30;1.00;;;;;;4919571;29;20702;-82
2022/08/02 10:09:56;;;;;;;5.95;4.35;;;27.30;1.00;;;;;;4912121;29;20096;-88
2022/08/02 10:12:43;;;;;;;8.38;4.72;;;28.00;1.00;;;;;;4925823;29;20056;-90
2022/08/02 10:15:33;;;;;;;6.95;3.85;;;29.10;1.00;;;;;;4917833;29;20048;-91
2022/08/02 10:18:21;;;;;;;4.85;3.55;;;30.20;1.00;;;;;;4914482;29;20063;-89
2022/08/02 10:21:46;;;;;;;3.25;2.95;;;30.90;1.00;;;;;;4920643;29;20493;-88
2022/08/02 10:24:38;;;;;;;5.75;4.32;;;31.80;1.00;;;;;;4912814;29;20083;-90
2022/08/02 10:27:35;;;;;;;3.80;3.40;;;31.20;1.00;;;;;;4914722;29;20059;-85
2022/08/02 10:30:47;;;;;;;3.63;2.80;;;30.50;1.00;;;;;;4918344;29;20066;-89
2022/08/02 10:33:40;;;;;;;5.28;3.25;;;30.30;1.00;;;;;;4909086;29;20044;-88
2022/08/02 10:36:32;;;;;;;3.20;2.90;;;30.70;1.00;;;;;;4916498;29;20527;-92
2022/08/02 10:39:20;;;;;;;3.55;2.90;;;31.50;1.00;;;;;;4917396;29;20055;-88
2022/08/02 10:42:07;;;;;;;3.58;2.67;;;31.40;1.00;;;;;;4915915;29;20067;-85
2022/08/02 10:45:09;;;;;;;4.50;3.05;;;31.60;1.00;;;;;;4922958;29;20044;-84
2022/08/02 10:48:02;;;;;;;3.85;3.13;;;30.40;1.00;;;;;;4918412;29;20478;-82
2022/08/02 10:50:51;;;;;;;2.80;2.60;;;29.90;1.00;;;;;;4912176;29;20067;-81
2022/08/02 10:53:38;;;;;;;2.53;2.30;;;31.00;1.00;;;;;;4917044;29;20052;-81
2022/08/02 10:56:45;;;;;;;4.53;2.50;;;31.90;1.00;;;;;;4916423;29;20461;-88
2022/08/02 10:59:35;;;;;;;4.10;2.45;;;33.40;1.00;;;;;;4914044;29;20051;-87
2022/08/02 11:02:55;;;;;;;2.63;2.42;;;33.80;1.00;;;;;;4916197;29;20051;-88
2022/08/02 11:05:42;;;;;;;2.50;2.20;;;34.40;1.00;;;;;;4890385;29;20060;-87
2022/08/02 11:08:30;;;;;;;2.58;1.67;;;35.00;1.00;;;;;;4919500;29;20048;-88
2022/08/02 11:11:18;;;;;;;1.67;1.48;;;34.90;1.00;;;;;;4915842;29;20055;-89
2022/08/02 11:14:26;;;;;;;2.25;2.00;;;34.10;1.00;;;;;;4914334;29;20537;-89
2022/08/02 11:17:19;;;;;;;1.90;1.80;;;34.30;1.00;;;;;;4911978;29;20080;-91
2022/08/02 11:20:14;;;;;;;2.33;2.13;;;32.80;1.00;;;;;;4918878;29;20055;-93
2022/08/02 11:23:34;;;;;;;3.53;2.05;;;31.60;1.00;;;;;;4913500;29;20052;-88
2022/08/02 11:26:31;;;;;;;3.45;1.80;;;31.20;1.00;;;;;;4915034;29;20047;-88
2022/08/02 11:29:19;;;;;;;5.15;2.13;;;31.70;1.00;;;;;;4924703;29;20048;-89
2022/08/02 11:32:19;;;;;;;3.25;1.88;;;32.30;1.00;;;;;;4913157;29;20051;-90
2022/08/02 11:35:06;;;;;;;2.42;1.70;;;32.90;1.00;;;;;;4912878;29;20040;-88
2022/08/02 11:37:57;;;;;;;5.72;2.05;;;33.70;1.00;;;;;;4919319;29;20162;-91
2022/08/02 11:40:46;;;;;;;1.73;1.58;;;33.70;1.00;;;;;;4916004;29;20128;-90
2022/08/02 11:43:34;;;;;;;2.53;1.67;;;33.90;1.00;;;;;;4916032;29;20198;-89
2022/08/02 11:46:23;;;;;;;1.95;1.80;;;34.70;1.00;;;;;;4917383;29;20052;-87
2022/08/02 11:49:15;;;;;;;4.60;2.00;;;35.10;1.00;;;;;;4911579;29;20052;-91
2022/08/02 11:52:05;;;;;;;2.50;1.83;;;34.40;1.00;;;;;;4921368;29;20087;-89
2022/08/02 11:54:52;;;;;;;3.58;1.92;;;34.90;1.00;;;;;;4909831;29;20056;-87
2022/08/02 11:57:40;;;;;;;1.80;1.70;;;35.20;1.00;;;;;;4908420;29;20060;-89
2022/08/02 12:00:48;;;;;;;2.78;1.70;;;36.00;1.00;;;;;;4911233;29;20060;-89
2022/08/02 12:03:39;;;;;;;2.08;1.77;;;36.40;1.00;;;;;;4908155;29;20049;-87
2022/08/02 12:06:27;;;;;;;2.22;1.40;;;36.30;1.00;;;;;;4916026;29;20040;-89
2022/08/02 12:09:15;;;;;;;2.28;1.58;;;36.70;1.00;;;;;;4920840;29;20048;-86
2022/08/02 12:12:05;;;;;;;2.03;1.67;;;35.80;1.00;;;;;;4915672;29;20048;-87
2022/08/02 12:14:52;;;;;;;4.75;1.63;;;35.50;1.00;;;;;;4910405;29;20127;-88
2022/08/02 12:20:45;;;;;;;1.50;1.40;;;36.00;1.00;;;;;;4912913;29;20055;-89
2022/08/02 12:23:42;;;;;;;2.33;1.55;;;35.50;1.00;;;;;;4916840;29;20131;-88
2022/08/02 12:26:47;;;;;;;2.22;1.45;;;35.40;1.00;;;;;;4907407;29;20454;-90
2022/08/02 12:29:36;;;;;;;1.95;1.40;;;36.20;1.00;;;;;;4914841;29;20123;-90
2022/08/02 12:32:44;;;;;;;2.08;1.38;;;36.20;1.00;;;;;;4915118;29;20063;-87
2022/08/02 12:35:34;;;;;;;1.67;1.58;;;34.30;1.00;;;;;;4917963;29;20052;-89
2022/08/02 12:38:24;;;;;;;2.13;1.90;;;33.90;1.00;;;;;;4912661;29;20478;-89
2022/08/02 12:41:14;;;;;;;2.05;1.90;;;33.50;1.00;;;;;;4909347;29;20048;-88
2022/08/02 12:44:18;;;;;;;5.85;1.98;;;33.10;1.00;;;;;;4915393;29;20183;-88
2022/08/02 12:47:11;;;;;;;2.85;1.70;;;33.50;1.00;;;;;;4916834;29;20052;-88
2022/08/02 12:50:16;;;;;;;4.10;2.30;;;33.40;1.00;;;;;;4917718;29;20472;-88
2022/08/02 12:53:16;;;;;;;5.90;1.92;;;33.40;1.00;;;;;;4927109;29;20036;-87
2022/08/02 12:56:03;;;;;;;4.40;2.10;;;33.80;1.00;;;;;;4926395;29;20080;-87
2022/08/02 12:58:51;;;;;;;2.63;1.83;;;34.60;1.00;;;;;;4907838;29;20049;-85
2022/08/02 13:01:39;;;;;;;2.00;1.80;;;34.80;1.00;;;;;;4919540;29;20052;-86
2022/08/02 13:04:27;;;;;;;4.05;1.90;;;35.00;1.00;;;;;;4921351;29;20051;-86
2022/08/02 13:07:16;;;;;;;2.75;1.50;;;35.70;1.00;;;;;;4923964;29;20036;-85
2022/08/02 13:10:06;;;;;;;2.20;1.65;;;36.70;1.00;;;;;;4925528;29;20032;-84
2022/08/02 13:12:53;;;;;;;4.30;1.50;;;37.10;99.90;;;;;;4929584;29;20047;-89
2022/08/02 13:15:43;;;;;;;2.03;1.83;;;37.80;99.90;;;;;;4910606;29;20435;-84
2022/08/02 13:18:37;;;;;;;1.83;1.70;;;37.10;99.90;;;;;;4926773;29;20043;-87
2022/08/02 13:21:29;;;;;;;1.80;1.60;;;35.30;99.90;;;;;;4936531;29;20075;-88
2022/08/02 13:24:40;;;;;;;4.03;2.00;;;34.90;99.90;;;;;;4924761;29;20044;-87
2022/08/02 13:27:45;;;;;;;2.35;1.70;;;34.40;99.90;;;;;;4917532;29;20059;-88
2022/08/02 13:30:35;;;;;;;2.10;1.52;;;35.80;99.90;;;;;;4915601;29;20044;-89
2022/08/02 13:33:22;;;;;;;3.40;1.33;;;36.90;99.90;;;;;;4915991;29;20052;-87
2022/08/02 13:36:09;;;;;;;2.30;1.80;;;37.60;99.90;;;;;;4906382;29;20062;-87
2022/08/02 13:38:57;;;;;;;2.35;1.90;;;37.30;99.90;;;;;;4915826;29;20116;-93
2022/08/02 13:41:44;;;;;;;1.90;1.80;;;36.80;99.90;;;;;;4912185;29;20067;-90
2022/08/02 13:44:34;;;;;;;2.42;1.70;;;36.40;99.90;;;;;;4916867;29;20040;-86
2022/08/02 13:47:21;;;;;;;2.85;1.80;;;36.10;99.90;;;;;;4918118;29;20135;-91
2022/08/02 13:50:29;;;;;;;2.13;1.90;;;34.70;99.90;;;;;;4916467;29;20127;-88
2022/08/02 13:53:16;;;;;;;3.20;1.70;;;34.90;99.90;;;;;;4913505;29;20048;-91
2022/08/02 13:56:03;;;;;;;2.75;1.70;;;36.00;99.90;;;;;;4917942;29;20059;-91
2022/08/02 13:58:51;;;;;;;3.22;1.67;;;36.30;99.90;;;;;;4918098;29;20111;-89
2022/08/02 14:01:38;;;;;;;3.92;1.80;;;36.30;99.90;;;;;;4916839;29;20041;-89
2022/08/02 14:04:29;;;;;;;3.28;1.73;;;36.10;99.90;;;;;;4917935;29;20063;-90
2022/08/02 14:07:16;;;;;;;2.00;1.80;;;36.50;99.90;;;;;;4909325;29;20080;-90
2022/08/02 14:10:04;;;;;;;2.10;1.85;;;35.80;99.90;;;;;;4919878;29;20051;-89
2022/08/02 14:12:52;;;;;;;3.42;1.90;;;36.60;99.90;;;;;;4909522;29;20040;-88
2022/08/02 14:15:45;;;;;;;2.13;1.80;;;36.80;99.90;;;;;;4908807;29;20071;-89
2022/08/02 14:18:37;;;;;;;2.20;1.98;;;36.40;99.90;;;;;;4915587;29;20143;-88
2022/08/02 14:21:24;;;;;;;4.07;2.22;;;35.50;99.90;;;;;;4919833;29;20480;-87
2022/08/02 14:24:15;;;;;;;2.25;2.00;;;35.10;99.90;;;;;;4916611;29;20071;-89
2022/08/02 14:27:02;;;;;;;4.07;2.42;;;34.70;99.90;;;;;;4920782;29;20040;-88
2022/08/02 14:29:52;;;;;;;3.00;1.92;;;35.00;99.90;;;;;;4897439;29;20055;-89
2022/08/02 14:32:41;;;;;;;1.88;1.65;;;35.80;99.90;;;;;;4918324;29;20060;-89
2022/08/02 14:35:29;;;;;;;2.63;1.67;;;36.00;99.90;;;;;;4907198;29;20048;-84
2022/08/02 14:38:18;;;;;;;4.47;2.00;;;36.20;99.90;;;;;;4916765;29;20043;-89
2022/08/02 14:41:05;;;;;;;1.73;1.63;;;35.60;99.90;;;;;;4917922;29;20048;-88
2022/08/02 14:44:04;;;;;;;3.55;1.90;;;35.30;99.90;;;;;;4916253;29;20055;-88
2022/08/02 14:46:54;;;;;;;2.25;1.60;;;36.10;99.90;;;;;;4915090;29;20059;-83
2022/08/02 14:49:41;;;;;;;2.47;1.70;;;35.80;99.90;;;;;;4917121;29;20057;-86
2022/08/02 14:52:34;;;;;;;4.55;1.80;;;35.40;99.90;;;;;;4906450;29;20557;-88
2022/08/02 14:55:24;;;;;;;2.10;1.90;;;35.40;99.90;;;;;;4905626;29;20044;-88
2022/08/02 14:58:11;;;;;;;2.78;2.03;;;35.40;99.90;;;;;;4913063;29;20044;-89
2022/08/02 15:01:02;;;;;;;5.25;1.90;;;35.80;99.90;;;;;;4917232;29;20461;-86
2022/08/02 15:03:50;;;;;;;2.88;2.17;;;35.20;99.90;;;;;;4923001;29;20055;-88